METAR EVRA 230350Z VRB02KT CAVOK 02/M00 Q1030 NOSIG =

Annual Statistics - Baltic Airports

(Click the images to zoom in)


Annual Traffic Trends, 2010-2018

 


Total Traffic Statistics (2010-2019) - last updated 3rd January 2019

Controllers Online

PositionControllerOnline
No controllers currently online

Booked ATC Today

* Times are UTC

The time is now

UTC: 

Local: 

Latvia vACC on twitter

Official vACC of:

  

Latvia vACC on Facebook